createdAt,value
2018-03-02T00:00:16.524Z,36.90
2018-03-02T00:02:42.706Z,37.00
2018-03-02T00:05:10.320Z,36.80
2018-03-02T00:07:36.508Z,36.90
2018-03-02T00:10:02.729Z,37.00
2018-03-02T00:12:29.056Z,37.00
2018-03-02T00:14:55.515Z,36.90
2018-03-02T00:17:22.103Z,37.50
2018-03-02T00:19:49.095Z,37.40
2018-03-02T00:22:15.633Z,37.40
2018-03-02T00:24:41.869Z,37.60
2018-03-02T00:27:08.263Z,37.50
2018-03-02T00:29:34.485Z,37.00
2018-03-02T00:32:00.727Z,37.60
2018-03-02T00:34:26.867Z,37.30
2018-03-02T00:36:53.023Z,37.40
2018-03-02T00:39:19.200Z,36.90
2018-03-02T00:41:46.132Z,37.70
2018-03-02T00:44:12.337Z,37.70
2018-03-02T00:46:38.553Z,37.00
2018-03-02T00:49:04.739Z,37.10
2018-03-02T00:51:30.950Z,37.40
2018-03-02T00:53:57.132Z,37.50
2018-03-02T00:56:23.600Z,37.30
2018-03-02T00:58:50.475Z,37.70
2018-03-02T01:01:16.675Z,37.70
2018-03-02T01:03:42.847Z,37.70
2018-03-02T01:06:09.037Z,37.50
2018-03-02T01:08:35.255Z,38.00
2018-03-02T01:11:01.399Z,37.40
2018-03-02T01:13:27.605Z,37.80
2018-03-02T01:15:53.794Z,37.60
2018-03-02T01:18:19.945Z,37.40
2018-03-02T01:20:46.102Z,37.20
2018-03-02T01:23:12.222Z,37.50
2018-03-02T01:25:38.363Z,37.50
2018-03-02T01:28:05.291Z,37.60
2018-03-02T01:30:31.419Z,37.50
2018-03-02T01:32:57.542Z,37.60
2018-03-02T01:35:23.738Z,37.50
2018-03-02T01:37:49.930Z,37.30
2018-03-02T01:40:16.107Z,37.60
2018-03-02T01:42:42.277Z,37.40
2018-03-02T01:45:08.956Z,37.70
2018-03-02T01:47:35.840Z,37.40
2018-03-02T01:50:01.993Z,37.40
2018-03-02T01:52:28.229Z,37.40
2018-03-02T01:54:54.364Z,37.60
2018-03-02T01:57:20.552Z,37.50
2018-03-02T01:59:46.760Z,37.80
2018-03-02T02:02:12.904Z,37.40
2018-03-02T02:04:39.066Z,37.70
2018-03-02T02:07:05.221Z,37.40
2018-03-02T02:09:32.100Z,37.40
2018-03-02T02:11:58.299Z,37.40
2018-03-02T02:14:25.299Z,37.80
2018-03-02T02:16:51.400Z,37.60
2018-03-02T02:19:17.553Z,37.50
2018-03-02T02:21:44.450Z,37.80
2018-03-02T02:24:10.647Z,37.80
2018-03-02T02:26:36.915Z,37.50
2018-03-02T02:29:03.052Z,37.70
2018-03-02T02:31:29.213Z,37.80
2018-03-02T02:33:55.347Z,38.00
2018-03-02T02:36:21.502Z,37.70
2018-03-02T02:38:47.672Z,37.80
2018-03-02T02:41:13.857Z,37.40
2018-03-02T02:43:40.076Z,37.30
2018-03-02T02:46:06.273Z,37.60
2018-03-02T02:48:32.645Z,37.90
2018-03-02T02:50:58.914Z,37.90
2018-03-02T02:53:25.823Z,37.80
2018-03-02T02:55:51.960Z,37.80
2018-03-02T02:58:18.221Z,37.50
2018-03-02T03:00:44.495Z,37.40
2018-03-02T03:03:10.651Z,37.60
2018-03-02T03:05:36.846Z,37.50
2018-03-02T03:08:03.799Z,37.70
2018-03-02T03:10:30.182Z,37.00
2018-03-02T03:12:57.274Z,37.50
2018-03-02T03:15:23.787Z,37.40
2018-03-02T03:17:49.935Z,37.70
2018-03-02T03:20:16.115Z,37.60
2018-03-02T03:22:42.305Z,37.40
2018-03-02T03:25:08.510Z,37.30
2018-03-02T03:27:34.687Z,38.10
2018-03-02T03:30:00.867Z,37.60
2018-03-02T03:32:27.088Z,37.40
2018-03-02T03:34:53.272Z,37.30
2018-03-02T03:37:19.444Z,37.60
2018-03-02T03:39:45.627Z,37.40
2018-03-02T03:42:11.816Z,37.70
2018-03-02T03:44:37.999Z,37.60
2018-03-02T03:47:04.171Z,37.60
2018-03-02T03:49:30.372Z,37.80
2018-03-02T03:51:56.540Z,37.60
2018-03-02T03:54:22.696Z,37.70
2018-03-02T03:56:48.843Z,37.80
2018-03-02T03:59:15.092Z,37.70
2018-03-02T04:01:41.316Z,38.00
2018-03-02T04:04:07.464Z,37.70
2018-03-02T04:06:34.375Z,37.80
2018-03-02T04:09:00.601Z,37.70
2018-03-02T04:11:26.788Z,38.00
2018-03-02T04:13:52.957Z,37.90
2018-03-02T04:16:19.192Z,37.70
2018-03-02T04:18:45.378Z,37.70
2018-03-02T04:21:11.554Z,37.40
2018-03-02T04:23:38.462Z,37.60
2018-03-02T04:26:04.616Z,37.60
2018-03-02T04:28:30.800Z,37.90
2018-03-02T04:30:56.961Z,37.60
2018-03-02T04:33:23.195Z,37.70
2018-03-02T04:35:49.357Z,37.90
2018-03-02T04:38:15.546Z,37.80
2018-03-02T04:40:41.676Z,37.80
2018-03-02T04:43:07.853Z,38.10
2018-03-02T04:45:34.077Z,38.00
2018-03-02T04:48:00.257Z,38.10
2018-03-02T04:50:26.571Z,38.10
2018-03-02T04:52:52.774Z,38.40
2018-03-02T04:55:18.955Z,38.40
2018-03-02T04:57:45.904Z,38.70
2018-03-02T05:00:12.835Z,38.70
2018-03-02T05:02:38.952Z,38.70
2018-03-02T05:05:05.092Z,38.50
2018-03-02T05:07:31.272Z,39.00
2018-03-02T05:09:58.217Z,39.20
2018-03-02T05:12:24.391Z,39.10
2018-03-02T05:14:50.737Z,39.50
2018-03-02T05:17:16.872Z,39.30
2018-03-02T05:19:43.025Z,39.20
2018-03-02T05:22:09.957Z,39.60
2018-03-02T05:24:36.856Z,39.90
2018-03-02T05:27:03.012Z,39.90
2018-03-02T05:29:30.338Z,40.00
2018-03-02T05:31:56.531Z,40.00
2018-03-02T05:34:22.789Z,40.20
2018-03-02T05:36:49.057Z,40.20
2018-03-02T05:39:15.363Z,40.20
2018-03-02T05:41:42.312Z,40.20
2018-03-02T05:44:08.485Z,40.20
2018-03-02T05:46:34.624Z,40.40
2018-03-02T05:49:01.533Z,40.50
2018-03-02T05:51:27.728Z,40.50
2018-03-02T05:53:53.902Z,40.40
2018-03-02T05:56:20.128Z,40.40
2018-03-02T05:58:46.359Z,40.30
2018-03-02T06:01:12.611Z,40.50
2018-03-02T06:03:38.917Z,40.50
2018-03-02T06:06:05.951Z,40.30
2018-03-02T06:08:32.881Z,40.30
2018-03-02T06:10:59.051Z,40.00
2018-03-02T06:13:25.525Z,40.10
2018-03-02T06:15:52.465Z,40.10
2018-03-02T06:18:18.669Z,40.10
2018-03-02T06:20:44.827Z,40.20
2018-03-02T06:23:10.988Z,40.10
2018-03-02T06:25:37.300Z,39.90
2018-03-02T06:28:04.432Z,40.40
2018-03-02T06:30:30.706Z,40.00
2018-03-02T06:32:56.865Z,40.50
2018-03-02T06:35:23.131Z,40.00
2018-03-02T06:37:49.400Z,40.50
2018-03-02T06:40:16.351Z,39.90
2018-03-02T06:42:42.529Z,39.90
2018-03-02T06:45:08.722Z,40.00
2018-03-02T06:47:34.924Z,39.90
2018-03-02T06:50:01.200Z,39.90
2018-03-02T06:52:27.505Z,39.90
2018-03-02T06:54:54.142Z,40.00
2018-03-02T06:57:20.397Z,39.70
2018-03-02T06:59:46.574Z,39.90
2018-03-02T07:02:13.485Z,39.60
2018-03-02T07:04:39.645Z,39.50
2018-03-02T07:07:05.828Z,39.60
2018-03-02T07:09:32.018Z,39.00
2018-03-02T07:11:58.188Z,39.50
2018-03-02T07:14:25.154Z,39.40
2018-03-02T07:16:51.305Z,39.40
2018-03-02T07:19:17.533Z,39.40
2018-03-02T07:21:43.683Z,39.60
2018-03-02T07:24:10.073Z,39.00
2018-03-02T07:26:36.205Z,39.20
2018-03-02T07:29:02.340Z,38.60
2018-03-02T07:31:28.519Z,38.70
2018-03-02T07:33:55.574Z,38.40
2018-03-02T07:36:22.489Z,38.20
2018-03-02T07:38:48.705Z,38.20
2018-03-02T07:41:14.882Z,38.40
2018-03-02T07:43:41.075Z,38.10
2018-03-02T07:46:07.243Z,38.40
2018-03-02T07:48:33.458Z,38.20
2018-03-02T07:51:00.081Z,38.00
2018-03-02T07:53:27.045Z,37.90
2018-03-02T07:55:53.253Z,37.90
2018-03-02T07:58:19.456Z,37.60
2018-03-02T08:00:45.633Z,37.80
2018-03-02T08:03:11.824Z,37.00
2018-03-02T08:52:40.055Z,34.90
2018-03-02T08:55:06.210Z,34.90
2018-03-02T08:57:32.405Z,35.20
2018-03-02T08:59:58.597Z,35.30
2018-03-02T09:02:24.776Z,35.20
2018-03-02T09:04:51.683Z,34.50
2018-03-02T09:07:17.964Z,34.40
2018-03-02T09:09:44.164Z,34.20
2018-03-02T09:12:10.370Z,33.80
2018-03-02T09:14:36.516Z,33.50
2018-03-02T09:19:55.613Z,34.00
2018-03-02T09:22:22.222Z,33.90
2018-03-02T09:24:48.506Z,33.20
2018-03-02T09:27:14.657Z,33.00
2018-03-02T09:29:40.839Z,32.90
2018-03-02T09:32:07.174Z,32.90
2018-03-02T09:34:33.682Z,32.90
2018-03-02T09:37:00.518Z,32.10
2018-03-02T09:39:26.789Z,31.90
2018-03-02T09:41:53.294Z,31.80
2018-03-02T09:44:19.907Z,32.30
2018-03-02T09:46:46.519Z,32.20
2018-03-02T09:49:13.076Z,32.50
2018-03-02T09:51:39.653Z,32.20
2018-03-02T09:54:06.280Z,31.80
2018-03-02T09:56:33.497Z,32.30
2018-03-02T09:58:59.764Z,32.30
2018-03-02T10:01:26.039Z,31.70
2018-03-02T10:03:52.229Z,31.70
2018-03-02T10:06:18.489Z,31.40
2018-03-02T10:08:44.737Z,31.50
2018-03-02T10:11:10.931Z,31.40
2018-03-02T10:13:37.098Z,31.00
2018-03-02T10:16:04.332Z,31.50
2018-03-02T10:18:30.557Z,31.10
2018-03-02T10:20:56.738Z,31.50
2018-03-02T10:23:22.954Z,31.50
2018-03-02T10:25:49.196Z,31.50
2018-03-02T10:28:15.636Z,30.70
2018-03-02T10:30:41.836Z,30.80
2018-03-02T10:33:08.079Z,30.80
2018-03-02T10:35:55.559Z,30.60
2018-03-02T10:38:22.086Z,30.20
2018-03-02T10:40:48.351Z,30.00
2018-03-02T10:43:18.674Z,29.90
2018-03-02T10:45:45.811Z,30.00
2018-03-02T10:48:11.968Z,29.90
2018-03-02T10:50:38.143Z,29.90
2018-03-02T10:53:04.311Z,29.50
2018-03-02T10:55:30.501Z,29.50
2018-03-02T10:57:56.641Z,29.00
2018-03-02T11:00:28.910Z,29.40
2018-03-02T11:02:56.028Z,30.00
2018-03-02T11:05:22.352Z,29.30
2018-03-02T11:07:49.426Z,29.20
2018-03-02T11:10:16.697Z,29.20
2018-03-02T11:12:43.608Z,28.70
2018-03-02T11:15:09.776Z,28.60
2018-03-02T11:17:35.923Z,28.40
2018-03-02T11:20:02.153Z,28.80
2018-03-02T11:22:28.303Z,28.70
2018-03-02T11:24:54.450Z,28.80
2018-03-02T11:27:21.383Z,28.70
2018-03-02T11:29:47.556Z,28.70
2018-03-02T11:32:14.450Z,28.70
2018-03-02T11:34:40.632Z,28.70
2018-03-02T11:37:06.831Z,28.70
2018-03-02T11:39:33.099Z,28.30
2018-03-02T11:42:00.151Z,28.40
2018-03-02T11:44:26.786Z,28.60
2018-03-02T11:46:53.166Z,28.50
2018-03-02T11:49:19.421Z,28.20
2018-03-02T11:51:46.799Z,28.30
2018-03-02T11:54:13.113Z,28.50
2018-03-02T11:56:39.385Z,28.20
2018-03-02T11:59:06.331Z,28.30
2018-03-02T12:01:32.615Z,28.30
2018-03-02T12:03:58.887Z,28.50
2018-03-02T12:06:25.689Z,28.70
2018-03-02T12:08:52.588Z,28.60
2018-03-02T12:11:18.841Z,28.60
2018-03-02T12:13:45.381Z,29.00
2018-03-02T12:16:12.615Z,28.90
2018-03-02T12:18:38.782Z,29.30
2018-03-02T12:21:05.746Z,29.20
2018-03-02T12:23:31.994Z,29.10
2018-03-02T12:25:58.215Z,29.20
2018-03-02T12:28:24.413Z,28.80
2018-03-02T12:30:50.609Z,28.90
2018-03-02T12:33:16.839Z,28.70
2018-03-02T12:35:43.053Z,28.70
2018-03-02T12:38:09.316Z,28.90
2018-03-02T12:40:35.516Z,28.70
2018-03-02T12:43:02.537Z,28.70
2018-03-02T12:45:28.746Z,28.70
2018-03-02T12:47:55.648Z,28.60
2018-03-02T12:50:21.802Z,28.70
2018-03-02T12:52:47.946Z,28.70
2018-03-02T12:55:14.272Z,28.60
2018-03-02T12:57:40.362Z,28.40
2018-03-02T13:00:06.553Z,28.80
2018-03-02T13:02:33.007Z,28.10
2018-03-02T13:04:59.619Z,28.30
2018-03-02T13:07:28.053Z,28.40
2018-03-02T13:09:54.310Z,28.10
2018-03-02T13:12:20.925Z,28.40
2018-03-02T13:14:48.336Z,28.20
2018-03-02T13:17:16.554Z,28.60
2018-03-02T13:19:42.845Z,27.90
2018-03-02T13:22:21.687Z,28.80
2018-03-02T13:24:48.433Z,28.50
2018-03-02T13:27:26.828Z,28.30
2018-03-02T13:29:53.276Z,28.80
2018-03-02T13:32:19.608Z,28.50
2018-03-02T13:34:58.473Z,28.70
2018-03-02T13:37:25.062Z,28.90
2018-03-02T13:40:03.890Z,29.20
2018-03-02T13:42:31.336Z,28.70
2018-03-02T13:44:58.400Z,28.80
2018-03-02T13:47:36.854Z,28.70
2018-03-02T13:50:06.817Z,28.30
2018-03-02T13:52:33.306Z,28.30
2018-03-02T13:55:00.636Z,28.80
2018-03-02T13:57:39.078Z,28.70
2018-03-02T14:02:51.913Z,28.70
2018-03-02T14:05:18.540Z,28.80
2018-03-02T14:07:45.923Z,28.70
2018-03-02T14:10:12.295Z,28.60
2018-03-02T14:12:38.653Z,28.60
2018-03-02T14:15:05.687Z,28.60
2018-03-02T14:17:32.236Z,29.10
2018-03-02T14:19:58.673Z,29.80
2018-03-02T14:22:24.965Z,29.20
2018-03-02T14:24:53.668Z,29.30
2018-03-02T14:27:20.132Z,29.00
2018-03-02T14:29:46.500Z,32.60
2018-03-02T14:34:45.826Z,29.20
2018-03-02T14:37:12.485Z,29.40
2018-03-02T14:39:40.164Z,28.90
2018-03-02T14:42:06.796Z,29.00
2018-03-02T14:44:33.166Z,29.40
2018-03-02T14:46:59.758Z,28.90
2018-03-02T14:49:26.969Z,28.90
2018-03-02T14:51:53.491Z,29.20
2018-03-02T14:54:19.840Z,29.80
2018-03-02T14:56:46.292Z,29.80
2018-03-02T14:59:12.764Z,29.50
2018-03-02T15:01:39.053Z,29.60
2018-03-02T15:04:05.669Z,29.70
2018-03-02T15:06:32.153Z,28.90
2018-03-02T15:08:59.128Z,29.70
2018-03-02T15:11:25.837Z,29.70
2018-03-02T15:13:52.101Z,30.00
2018-03-02T15:16:18.390Z,29.90
2018-03-02T15:18:45.020Z,29.80
2018-03-02T15:21:12.340Z,29.90
2018-03-02T15:23:38.743Z,29.50
2018-03-02T15:26:05.200Z,29.70
2018-03-02T15:28:31.508Z,29.60
2018-03-02T15:31:00.188Z,30.00
2018-03-02T15:33:27.692Z,30.00
2018-03-02T15:35:54.056Z,29.90
2018-03-02T15:38:20.350Z,30.00
2018-03-02T15:40:47.182Z,30.00
2018-03-02T16:13:57.433Z,30.30
2018-03-02T16:16:25.411Z,30.20
2018-03-02T16:18:52.943Z,30.70
2018-03-02T16:21:19.346Z,31.60
2018-03-02T16:23:46.940Z,31.30
2018-03-02T16:26:14.628Z,31.00
2018-03-02T16:28:40.912Z,31.00
2018-03-02T16:31:07.282Z,30.80
2018-03-02T16:33:33.552Z,30.80
2018-03-02T16:35:59.750Z,32.00
2018-03-02T16:38:26.924Z,32.40
2018-03-02T16:40:53.200Z,31.70
2018-03-02T16:43:19.501Z,31.30
2018-03-02T16:45:46.448Z,31.30
2018-03-02T16:48:12.760Z,31.20
2018-03-02T16:50:38.948Z,31.80
2018-03-02T16:53:05.913Z,32.10
2018-03-02T16:55:32.171Z,32.10
2018-03-02T16:57:58.436Z,32.10
2018-03-02T17:00:24.653Z,32.50
2018-03-02T17:02:52.016Z,33.10
2018-03-02T17:05:18.406Z,33.50
2018-03-02T17:17:04.792Z,33.70
2018-03-02T17:19:31.011Z,34.20
2018-03-02T17:21:57.949Z,34.60
2018-03-02T17:24:24.192Z,34.60
2018-03-02T17:26:50.404Z,34.30
2018-03-02T17:29:17.089Z,33.90
2018-03-02T17:31:43.394Z,34.00
2018-03-02T17:34:09.667Z,33.90
2018-03-02T17:36:36.397Z,34.00
2018-03-02T17:39:02.584Z,34.30
2018-03-02T17:41:28.831Z,33.90
2018-03-02T17:43:55.032Z,34.40
2018-03-02T17:46:23.483Z,34.00
2018-03-02T17:48:50.612Z,35.40
2018-03-02T17:51:16.808Z,35.00
2018-03-02T17:53:43.021Z,34.90
2018-03-02T17:56:09.231Z,34.40
2018-03-02T17:58:35.564Z,35.10
2018-03-02T18:01:01.785Z,34.80
2018-03-02T18:03:27.918Z,35.00
2018-03-02T18:05:54.097Z,35.80
2018-03-02T18:08:20.252Z,35.70
2018-03-02T18:10:47.161Z,35.50
2018-03-02T18:13:13.378Z,35.50
2018-03-02T18:15:39.606Z,35.30
2018-03-02T18:18:05.800Z,35.40
2018-03-02T18:20:31.988Z,35.40
2018-03-02T18:22:58.353Z,35.20
2018-03-02T18:25:24.511Z,35.70
2018-03-02T18:27:50.756Z,35.20
2018-03-02T18:30:17.663Z,36.00
2018-03-02T18:32:43.943Z,35.50
2018-03-02T18:35:10.169Z,34.90
2018-03-02T18:37:36.303Z,35.40
2018-03-02T18:40:02.542Z,35.70
2018-03-02T18:42:28.852Z,36.60
2018-03-02T18:44:55.033Z,37.20
2018-03-02T18:47:21.377Z,37.80
2018-03-02T18:49:47.711Z,39.50
2018-03-02T18:52:15.025Z,40.90
2018-03-02T18:54:41.318Z,42.70
2018-03-02T18:57:07.660Z,43.20
2018-03-02T18:59:33.985Z,44.20
2018-03-02T19:02:00.161Z,43.90
2018-03-02T19:04:26.354Z,43.20
2018-03-02T19:06:52.518Z,43.70
2018-03-02T19:09:18.722Z,43.70
2018-03-02T19:11:46.076Z,45.80
2018-03-02T19:14:12.249Z,45.20
2018-03-02T19:16:39.127Z,45.20
2018-03-02T19:19:05.421Z,45.30
2018-03-02T19:21:31.572Z,46.30
2018-03-02T19:23:57.728Z,46.60
2018-03-02T19:26:25.713Z,46.90
2018-03-02T19:28:52.017Z,46.90
2018-03-02T19:31:18.186Z,47.70
2018-03-02T19:33:44.357Z,47.70
2018-03-02T19:36:11.375Z,48.20
2018-03-02T19:38:37.561Z,48.70
2018-03-02T19:41:03.739Z,49.30
2018-03-02T19:43:29.867Z,49.30
2018-03-02T19:45:56.117Z,50.30
2018-03-02T19:48:23.046Z,51.20
2018-03-02T19:50:53.824Z,51.40
2018-03-02T19:53:20.097Z,51.30
2018-03-02T19:55:46.282Z,52.20
2018-03-02T19:58:12.471Z,52.70
2018-03-02T20:00:39.415Z,54.40
2018-03-02T20:03:05.568Z,54.40
2018-03-02T20:05:32.489Z,55.30
2018-03-02T20:07:58.615Z,55.20
2018-03-02T20:10:24.820Z,55.60
2018-03-02T20:12:50.968Z,55.80
2018-03-02T20:15:17.219Z,56.50
2018-03-02T20:17:43.500Z,57.80
2018-03-02T20:20:09.755Z,58.50
2018-03-02T20:22:36.747Z,59.90
2018-03-02T20:25:02.936Z,60.70
2018-03-02T20:27:29.196Z,62.20
2018-03-02T20:29:55.398Z,64.00
2018-03-02T20:34:56.670Z,64.90
2018-03-02T20:37:30.087Z,65.70
2018-03-02T20:39:56.268Z,65.90
2018-03-02T20:42:22.585Z,66.70
2018-03-02T20:44:48.796Z,65.90
2018-03-02T20:47:15.320Z,66.90
2018-03-02T20:49:42.293Z,68.30
2018-03-02T20:52:08.484Z,67.50
2018-03-02T21:03:45.018Z,69.30
2018-03-02T21:06:11.320Z,69.80
2018-03-02T21:08:37.557Z,70.20
2018-03-02T21:11:03.784Z,70.60
2018-03-02T21:13:30.025Z,70.50
2018-03-02T21:15:56.291Z,71.60
2018-03-02T21:18:22.525Z,71.40
2018-03-02T21:20:48.719Z,71.30
2018-03-02T21:23:14.880Z,71.90
2018-03-02T21:25:43.182Z,72.10
2018-03-02T21:28:09.391Z,72.30
2018-03-02T21:30:36.507Z,72.30
2018-03-02T21:33:02.825Z,72.00
2018-03-02T21:35:29.023Z,72.50
2018-03-02T21:37:55.978Z,72.00
2018-03-02T21:40:22.224Z,72.00
2018-03-02T21:42:48.464Z,72.90
2018-03-02T21:45:14.640Z,73.10
2018-03-02T21:47:40.861Z,73.50
2018-03-02T21:50:07.111Z,73.70
2018-03-02T21:52:33.341Z,74.50
2018-03-02T21:55:02.283Z,73.70
2018-03-02T21:57:28.448Z,73.60
2018-03-02T21:59:54.610Z,73.90
2018-03-02T22:02:21.687Z,74.00
2018-03-02T22:04:47.938Z,74.00
2018-03-02T22:07:14.831Z,73.60
2018-03-02T22:09:41.182Z,73.40
2018-03-02T22:12:07.424Z,72.90
2018-03-02T22:14:33.611Z,72.90
2018-03-02T22:17:01.380Z,73.10
2018-03-02T22:19:27.600Z,73.20
2018-03-02T22:21:53.805Z,73.30
2018-03-02T22:24:20.035Z,73.40
2018-03-02T22:26:46.532Z,73.30
2018-03-02T22:29:13.697Z,72.80
2018-03-02T22:31:40.500Z,72.80
2018-03-02T22:34:06.796Z,73.20
2018-03-02T22:36:34.636Z,73.20
2018-03-02T22:39:00.825Z,73.20
2018-03-02T22:41:27.774Z,73.90
2018-03-02T22:43:54.509Z,73.80
2018-03-02T22:46:20.745Z,73.80
2018-03-02T22:48:47.017Z,73.50
2018-03-02T22:51:15.409Z,73.60
2018-03-02T23:12:00.643Z,74.00
2018-03-02T23:14:26.872Z,74.00
2018-03-02T23:16:53.080Z,73.80
2018-03-02T23:19:19.272Z,74.50
2018-03-02T23:21:45.481Z,74.70
2018-03-02T23:24:11.719Z,74.60
2018-03-02T23:26:37.842Z,75.00
2018-03-02T23:29:05.282Z,75.70
2018-03-02T23:31:31.539Z,75.60
2018-03-02T23:33:57.808Z,75.50
2018-03-02T23:36:24.018Z,75.70
2018-03-02T23:38:50.204Z,75.80
2018-03-02T23:41:16.435Z,76.10
2018-03-02T23:43:42.597Z,75.80
2018-03-02T23:46:08.745Z,76.60
2018-03-02T23:48:34.949Z,75.70
2018-03-02T23:51:01.816Z,75.80
2018-03-02T23:53:27.996Z,75.70
2018-03-02T23:55:54.164Z,75.90
2018-03-02T23:58:20.306Z,76.10
